Time;durP1;ratioP1;P1;durP2;ratioP2;P2;SDS_P1;SDS_P2;PMS_P1;PMS_P2;Temp;Humidity;BMP_temperature;BMP_pressure;BME280_temperature;BME280_humidity;BME280_pressure;Samples;Min_cycle;Max_cycle;Signal;HPM_P1;HPM_P2
2023/12/19 00:00:57;;;;;;;135.55;60.42;;;;;;;-144.73;100.00;54748.44;4982803;28;20022;-76
2023/12/19 00:03:22;;;;;;;132.60;62.67;;;;;;;-144.73;100.00;54748.44;4983919;28;20057;-75
2023/12/19 00:05:47;;;;;;;125.32;56.67;;;;;;;-144.73;100.00;54723.81;4983153;28;20018;-76
2023/12/19 00:08:13;;;;;;;146.43;65.60;;;;;;;-144.73;100.00;54783.31;4980159;28;20121;-76
2023/12/19 00:10:38;;;;;;;133.65;60.90;;;;;;;-144.73;100.00;54727.91;4989726;28;20030;-75
2023/12/19 00:13:04;;;;;;;123.72;57.40;;;;;;;-144.73;100.00;54781.28;4975573;28;20035;-75
2023/12/19 00:15:29;;;;;;;129.05;62.05;;;;;;;-144.73;100.00;54736.13;4980078;28;20042;-75
2023/12/19 00:17:55;;;;;;;119.22;61.42;;;;;;;-144.73;100.00;54756.66;4981040;28;20086;-76
2023/12/19 00:20:20;;;;;;;124.15;59.42;;;;;;;-144.73;100.00;54736.13;4978387;28;20484;-75
2023/12/19 00:22:46;;;;;;;126.28;64.45;;;;;;;-144.73;100.00;54736.13;4979473;28;20085;-76
2023/12/19 00:25:12;;;;;;;121.40;61.08;;;;;;;-144.73;100.00;54732.00;4982162;28;20031;-75
2023/12/19 00:27:37;;;;;;;120.22;55.38;;;;;;;-144.73;100.00;54781.28;4980850;28;20058;-75
2023/12/19 00:30:03;;;;;;;126.35;59.85;;;;;;;-144.73;100.00;54762.81;4980677;28;20029;-74
2023/12/19 00:32:28;;;;;;;126.28;57.85;;;;;;;-144.73;100.00;54736.13;4991053;28;20041;-74
2023/12/19 00:34:54;;;;;;;121.78;56.72;;;;;;;-144.73;100.00;54764.84;4977496;28;20485;-74
2023/12/19 00:37:19;;;;;;;104.03;59.75;;;;;;;-144.73;100.00;54748.44;4976469;28;20034;-74
2023/12/19 00:39:45;;;;;;;99.93;53.38;;;;;;;-144.73;100.00;54777.16;4975577;28;20051;-75
2023/12/19 00:42:10;;;;;;;109.63;54.45;;;;;;;-144.73;100.00;54766.91;4990615;28;20129;-74
2023/12/19 00:44:37;;;;;;;108.20;56.75;;;;;;;-144.73;100.00;54703.28;4977602;28;20039;-73
2023/12/19 00:47:03;;;;;;;106.25;53.03;;;;;;;-144.73;100.00;54719.69;4977260;28;20026;-75
2023/12/19 00:49:29;;;;;;;95.20;51.17;;;;;;;-144.73;100.00;54740.22;4991999;28;20081;-76
2023/12/19 00:51:54;;;;;;;94.32;51.05;;;;;;;-144.73;100.00;54736.13;4980252;28;20482;-73
2023/12/19 00:54:20;;;;;;;105.28;50.65;;;;;;;-144.73;100.00;54740.22;4974376;28;20042;-74
2023/12/19 00:56:45;;;;;;;100.68;48.33;;;;;;;-144.73;100.00;54748.44;4975212;28;20033;-74
2023/12/19 00:59:11;;;;;;;90.47;49.08;;;;;;;-144.73;100.00;54752.53;4976622;28;20050;-74
2023/12/19 01:01:36;;;;;;;98.53;49.92;;;;;;;-144.73;100.00;54766.91;4983378;28;20394;-73
2023/12/19 01:04:01;;;;;;;96.82;48.33;;;;;;;-144.73;100.00;54732.00;4978472;28;20035;-73
2023/12/19 01:06:28;;;;;;;77.63;44.15;;;;;;;-144.73;100.00;54744.31;4981358;28;20070;-73
2023/12/19 01:08:54;;;;;;;83.80;47.40;;;;;;;-144.73;100.00;54740.22;4986290;28;20448;-73
2023/12/19 01:11:19;;;;;;;84.35;41.70;;;;;;;-144.73;100.00;54756.66;4976762;28;20027;-74
2023/12/19 01:13:48;;;;;;;83.10;42.63;;;;;;;-144.73;100.00;54732.00;4986423;28;20070;-73
2023/12/19 01:16:14;;;;;;;79.10;42.83;;;;;;;-144.73;100.00;54760.75;4983018;28;20023;-72
2023/12/19 01:18:40;;;;;;;87.00;43.03;;;;;;;-144.73;100.00;54752.53;4979954;28;20034;-72
2023/12/19 01:21:05;;;;;;;77.60;39.78;;;;;;;-144.73;100.00;54719.69;4982827;28;20057;-72
2023/12/19 01:23:30;;;;;;;75.00;43.95;;;;;;;-144.73;100.00;54756.66;4984090;28;20121;-72
2023/12/19 01:25:56;;;;;;;82.03;42.72;;;;;;;-144.73;100.00;54756.66;4976696;28;20050;-73
2023/12/19 01:28:22;;;;;;;85.82;42.28;;;;;;;-144.73;100.00;54768.97;4977039;28;20034;-73
2023/12/19 01:30:47;;;;;;;72.18;39.05;;;;;;;-144.73;100.00;54740.22;4984165;28;20018;-74
2023/12/19 01:33:12;;;;;;;79.53;38.58;;;;;;;-144.73;100.00;54752.53;4982547;28;20054;-72
2023/12/19 01:35:38;;;;;;;74.55;38.22;;;;;;;-144.73;100.00;54736.13;4974671;28;20489;-70
2023/12/19 01:38:04;;;;;;;69.97;38.92;;;;;;;-144.73;100.00;54727.91;4983002;28;20098;-70
2023/12/19 01:40:31;;;;;;;75.60;41.47;;;;;;;-144.73;100.00;54740.22;4979879;28;20015;-72
2023/12/19 01:43:00;;;;;;;74.18;40.83;;;;;;;-144.73;100.00;54752.53;4973739;28;20046;-71
2023/12/19 01:45:28;;;;;;;73.47;42.22;;;;;;;-144.73;100.00;54723.81;4984679;28;20026;-72
2023/12/19 01:47:53;;;;;;;77.82;40.90;;;;;;;-144.73;100.00;54727.91;4982770;28;20046;-72
2023/12/19 01:50:20;;;;;;;70.10;37.92;;;;;;;-144.73;100.00;54777.16;4975032;28;20046;-72
2023/12/19 01:52:57;;;;;;;76.03;40.42;;;;;;;-144.73;100.00;54760.75;4979463;28;20130;-72
2023/12/19 01:55:24;;;;;;;76.82;39.05;;;;;;;-144.73;100.00;54768.97;4983936;28;20484;-72
2023/12/19 01:57:50;;;;;;;74.78;39.63;;;;;;;-144.73;100.00;54736.13;4974716;28;20039;-72
2023/12/19 02:00:16;;;;;;;73.07;40.10;;;;;;;-144.73;100.00;54768.97;4980541;28;20015;-72
2023/12/19 02:02:43;;;;;;;68.00;36.80;;;;;;;-144.73;100.00;54697.13;4976112;28;20133;-73
2023/12/19 02:05:09;;;;;;;70.78;40.97;;;;;;;-144.73;100.00;54777.16;4981460;28;20034;-73
2023/12/19 02:07:34;;;;;;;66.47;36.00;;;;;;;-144.73;100.00;54738.16;4974080;28;20025;-73
2023/12/19 02:10:00;;;;;;;63.88;35.65;;;;;;;-144.73;100.00;54783.31;4974702;28;20070;-73
2023/12/19 02:12:26;;;;;;;64.38;38.00;;;;;;;-144.73;100.00;54752.53;4981647;28;20026;-73
2023/12/19 02:14:52;;;;;;;66.57;36.60;;;;;;;-144.73;100.00;54719.69;4978793;28;20385;-72
2023/12/19 02:17:21;;;;;;;65.90;34.42;;;;;;;-144.73;100.00;54756.66;4983060;28;20033;-73
2023/12/19 02:19:51;;;;;;;73.85;37.25;;;;;;;-144.73;100.00;54756.66;4982179;28;20121;-73
2023/12/19 02:22:17;;;;;;;61.83;34.87;;;;;;;-144.73;100.00;54762.81;4980967;28;20019;-73
2023/12/19 02:24:43;;;;;;;55.95;33.53;;;;;;;-144.73;100.00;54752.53;4984058;28;20285;-73
2023/12/19 02:27:09;;;;;;;63.97;35.22;;;;;;;-144.73;100.00;54740.22;4974363;28;20030;-73
2023/12/19 02:29:35;;;;;;;56.47;32.78;;;;;;;-144.73;100.00;54744.31;4973380;28;20059;-73
2023/12/19 02:32:01;;;;;;;61.65;34.78;;;;;;;-144.73;100.00;54748.44;4982463;28;20061;-72
2023/12/19 02:34:27;;;;;;;60.97;33.83;;;;;;;-144.73;100.00;54752.53;4977936;28;20073;-73
2023/12/19 02:36:52;;;;;;;59.08;33.70;;;;;;;-144.73;100.00;54723.81;4975665;28;20022;-73
2023/12/19 02:39:18;;;;;;;63.97;35.88;;;;;;;-144.73;100.00;54752.53;4979300;28;20038;-73
2023/12/19 02:41:43;;;;;;;60.25;30.13;;;;;;;-144.73;100.00;54740.22;4974361;28;20018;-73
2023/12/19 02:44:09;;;;;;;51.25;31.13;;;;;;;-144.73;100.00;54732.00;4974626;28;20042;-75
2023/12/19 02:46:35;;;;;;;54.10;32.88;;;;;;;-144.73;100.00;54785.38;4982072;28;20029;-73
2023/12/19 02:49:00;;;;;;;58.42;33.38;;;;;;;-144.73;100.00;54764.84;4980498;28;20046;-73
2023/12/19 02:51:26;;;;;;;52.38;28.95;;;;;;;-144.73;100.00;54785.38;4983638;28;20022;-73
2023/12/19 02:53:53;;;;;;;56.40;32.15;;;;;;;-144.73;100.00;54764.84;4973798;28;20031;-72
2023/12/19 02:56:18;;;;;;;58.58;32.17;;;;;;;-144.73;100.00;54736.13;4979792;28;20121;-73
2023/12/19 02:58:44;;;;;;;57.70;31.67;;;;;;;-144.73;100.00;54740.22;4972159;28;20118;-73
2023/12/19 03:01:10;;;;;;;67.25;34.13;;;;;;;-144.73;100.00;54744.31;4981607;28;20026;-73
2023/12/19 03:03:35;;;;;;;60.40;34.38;;;;;;;-144.73;100.00;54744.31;4976989;28;20061;-73
2023/12/19 03:06:01;;;;;;;69.53;38.42;;;;;;;-144.73;100.00;54748.44;4978528;28;20026;-73
2023/12/19 03:08:26;;;;;;;68.57;36.75;;;;;;;-144.73;100.00;54744.31;4989415;28;20053;-73
2023/12/19 03:10:52;;;;;;;74.20;38.30;;;;;;;-144.73;100.00;54744.31;4984365;28;20057;-73
2023/12/19 03:13:18;;;;;;;68.35;36.92;;;;;;;-144.73;100.00;54771.00;4976530;28;20041;-73
2023/12/19 03:15:43;;;;;;;87.05;42.67;;;;;;;-144.73;100.00;54750.50;4980353;28;20382;-73
2023/12/19 03:18:09;;;;;;;84.85;46.72;;;;;;;-144.73;100.00;54762.81;4984837;28;20042;-73
2023/12/19 03:20:35;;;;;;;90.38;45.92;;;;;;;-144.73;100.00;54746.38;4978395;28;20052;-73
2023/12/19 03:23:01;;;;;;;102.75;47.10;;;;;;;-144.73;100.00;54756.66;4980904;28;20042;-73
2023/12/19 03:25:27;;;;;;;96.43;43.28;;;;;;;-144.73;100.00;54764.84;4985776;28;20117;-73
2023/12/19 03:27:52;;;;;;;94.28;47.65;;;;;;;-144.73;100.00;54744.31;4982393;28;20064;-73
2023/12/19 03:30:18;;;;;;;88.72;39.13;;;;;;;-144.73;100.00;54781.28;4984897;28;20478;-73
2023/12/19 03:32:43;;;;;;;75.10;38.83;;;;;;;-144.73;100.00;54740.22;4982029;28;20046;-73
2023/12/19 03:35:13;;;;;;;78.35;40.38;;;;;;;-144.73;100.00;54773.06;4983839;28;20072;-73
2023/12/19 03:37:39;;;;;;;75.22;38.60;;;;;;;-144.73;100.00;54773.06;4986442;28;20029;-73
2023/12/19 03:40:05;;;;;;;79.50;40.35;;;;;;;-144.73;100.00;54723.81;4989340;28;20026;-72
2023/12/19 03:42:31;;;;;;;84.57;41.90;;;;;;;-144.73;100.00;54758.69;4990604;28;20121;-73
2023/12/19 03:44:56;;;;;;;77.22;39.63;;;;;;;-144.73;100.00;54787.44;4984755;28;20118;-73
2023/12/19 03:47:22;;;;;;;63.80;34.13;;;;;;;-144.73;100.00;54748.44;4976165;28;20042;-74
2023/12/19 03:49:47;;;;;;;63.40;33.88;;;;;;;-144.73;100.00;54740.22;4975666;28;20058;-75
2023/12/19 03:52:13;;;;;;;70.18;36.17;;;;;;;-144.73;100.00;54771.00;4986446;28;20061;-76
2023/12/19 03:54:39;;;;;;;54.67;31.08;;;;;;;-144.73;100.00;54736.13;4986069;28;20034;-75
2023/12/19 03:57:04;;;;;;;60.17;31.65;;;;;;;-144.73;100.00;54703.28;4988737;28;20161;-76
2023/12/19 03:59:30;;;;;;;59.70;29.95;;;;;;;-144.73;100.00;54744.31;4991714;28;20061;-76
2023/12/19 04:01:58;;;;;;;55.60;29.60;;;;;;;-144.74;100.00;63161.41;4992106;28;20090;-75
2023/12/19 04:04:23;;;;;;;60.08;30.77;;;;;;;-144.74;100.00;63161.41;4986497;28;20049;-75
2023/12/19 04:06:49;;;;;;;52.88;29.38;;;;;;;-144.74;100.00;63161.41;4992255;28;20022;-75
2023/12/19 04:09:15;;;;;;;52.88;28.85;;;;;;;-144.74;100.00;63161.41;4985292;28;20035;-76
2023/12/19 04:11:47;;;;;;;50.40;28.77;;;;;;;-144.74;100.00;63161.41;4988929;28;20019;-75
2023/12/19 04:14:14;;;;;;;57.65;29.60;;;;;;;-144.74;100.00;63161.41;4976882;28;20050;-75
2023/12/19 04:16:40;;;;;;;46.75;25.10;;;;;;;-144.74;100.00;63161.41;4978808;28;20117;-76
2023/12/19 04:19:05;;;;;;;51.03;27.65;;;;;;;-144.74;100.00;63161.41;4986639;28;20090;-76
2023/12/19 04:21:31;;;;;;;43.00;25.13;;;;;;;-144.74;100.00;63161.41;4990098;28;20030;-76
2023/12/19 04:23:56;;;;;;;48.50;27.65;;;;;;;-144.74;100.00;63161.41;4985775;28;20070;-75
2023/12/19 04:26:21;;;;;;;48.72;27.27;;;;;;;-144.74;100.00;63161.41;4985307;28;20100;-75
2023/12/19 04:28:47;;;;;;;42.97;24.55;;;;;;;-144.74;100.00;63161.41;4979931;28;20149;-75
2023/12/19 04:31:13;;;;;;;48.55;29.67;;;;;;;-144.74;100.00;63161.41;4990553;28;20027;-76
2023/12/19 04:33:38;;;;;;;48.33;26.85;;;;;;;-144.74;100.00;63161.41;4974757;28;20039;-75
2023/12/19 04:36:06;;;;;;;46.28;26.77;;;;;;;-144.74;100.00;63161.41;4982659;28;20477;-75
2023/12/19 04:38:32;;;;;;;43.00;25.10;;;;;;;-144.74;100.00;63161.41;4981989;28;20062;-76
2023/12/19 04:40:58;;;;;;;45.53;26.83;;;;;;;-144.74;100.00;63161.41;4982093;28;20046;-75
2023/12/19 04:43:24;;;;;;;34.35;21.42;;;;;;;-144.74;100.00;63161.41;4984264;28;20034;-74
2023/12/19 04:45:49;;;;;;;44.67;25.38;;;;;;;-144.74;100.00;63161.41;4990981;28;20061;-74
2023/12/19 04:48:14;;;;;;;38.95;25.35;;;;;;;-144.74;100.00;63161.41;4985467;28;20042;-74
2023/12/19 04:50:40;;;;;;;39.28;20.70;;;;;;;-144.74;100.00;63161.41;4980783;28;20094;-74
2023/12/19 04:53:05;;;;;;;40.55;23.67;;;;;;;-144.74;100.00;63161.41;4984855;28;20022;-74
2023/12/19 04:55:31;;;;;;;46.00;24.88;;;;;;;-144.74;100.00;63161.41;4986503;28;20042;-74
2023/12/19 04:57:56;;;;;;;42.75;22.73;;;;;;;-144.74;100.00;63161.41;4985743;28;20486;-75
2023/12/19 05:00:22;;;;;;;37.28;22.90;;;;;;;-144.74;100.00;63161.41;4982872;28;20025;-74
2023/12/19 05:02:47;;;;;;;41.47;24.38;;;;;;;-144.74;100.00;63161.41;4983946;28;20445;-74
2023/12/19 05:05:13;;;;;;;39.35;22.20;;;;;;;-144.74;100.00;63161.41;4979385;28;20018;-72
2023/12/19 05:07:39;;;;;;;40.40;24.35;;;;;;;-144.74;100.00;63161.41;4982488;28;20042;-74
2023/12/19 05:10:04;;;;;;;38.72;23.30;;;;;;;-144.74;100.00;63161.41;4983566;28;20026;-72
2023/12/19 05:12:30;;;;;;;39.92;24.65;;;;;;;-144.74;100.00;63161.41;4982707;28;20113;-72
2023/12/19 05:14:55;;;;;;;41.97;25.80;;;;;;;-144.74;100.00;63161.41;4978601;28;20066;-72
2023/12/19 05:17:20;;;;;;;40.22;25.45;;;;;;;-144.74;100.00;63161.41;4982005;28;20524;-73
2023/12/19 05:19:46;;;;;;;43.42;25.08;;;;;;;-144.74;100.00;63161.41;4979438;28;20087;-73
2023/12/19 05:22:11;;;;;;;47.05;27.17;;;;;;;-144.74;100.00;63161.41;4978002;28;20037;-75
2023/12/19 05:24:38;;;;;;;53.67;27.45;;;;;;;-144.74;100.00;63161.41;4978446;28;20051;-74
2023/12/19 05:27:07;;;;;;;38.22;24.88;;;;;;;-144.74;100.00;63161.41;4984744;28;20113;-73
2023/12/19 05:29:32;;;;;;;41.03;22.75;;;;;;;-144.74;100.00;63161.41;4982470;28;20054;-73
2023/12/19 05:31:58;;;;;;;35.85;22.63;;;;;;;-144.74;100.00;63161.41;4979501;28;20043;-75
2023/12/19 05:34:23;;;;;;;40.53;23.98;;;;;;;-144.74;100.00;63161.41;4974587;28;20098;-75
2023/12/19 05:36:49;;;;;;;43.38;25.25;;;;;;;-144.74;100.00;63161.41;4978521;28;20029;-74
2023/12/19 05:39:17;;;;;;;43.63;24.35;;;;;;;-144.74;100.00;63161.41;4979347;28;20051;-75
2023/12/19 05:41:43;;;;;;;33.90;20.65;;;;;;;-144.74;100.00;63161.41;4977793;28;20018;-74
2023/12/19 05:44:08;;;;;;;39.45;21.67;;;;;;;-144.74;100.00;63161.41;4985127;28;20093;-74
2023/12/19 05:46:34;;;;;;;37.38;21.33;;;;;;;-144.74;100.00;63161.41;4985002;28;20096;-75
2023/12/19 05:49:00;;;;;;;32.78;19.70;;;;;;;-144.74;100.00;63161.41;4978753;28;20041;-75
2023/12/19 05:51:25;;;;;;;33.63;20.40;;;;;;;-144.74;100.00;63161.41;4982456;28;20105;-74
2023/12/19 05:53:51;;;;;;;33.65;19.38;;;;;;;-144.74;100.00;63161.41;4983910;28;20078;-74
2023/12/19 05:56:16;;;;;;;32.67;18.63;;;;;;;-144.74;100.00;63161.41;4984498;28;20089;-74
2023/12/19 05:58:44;;;;;;;25.55;16.98;;;;;;;-144.74;100.00;63161.41;4985591;28;20031;-74
2023/12/19 06:01:10;;;;;;;27.35;16.92;;;;;;;-144.74;100.00;63161.41;4981467;28;20054;-74
2023/12/19 06:03:35;;;;;;;23.58;15.73;;;;;;;-144.74;100.00;63161.41;4980809;28;20108;-74
2023/12/19 06:06:01;;;;;;;27.13;17.17;;;;;;;-144.74;100.00;63161.41;4987304;28;20030;-76
2023/12/19 06:08:26;;;;;;;22.73;15.70;;;;;;;-144.74;100.00;63161.41;4994497;28;20174;-75
2023/12/19 06:10:52;;;;;;;28.42;15.00;;;;;;;-144.74;100.00;63161.41;4976528;28;20042;-75
2023/12/19 06:13:18;;;;;;;25.27;16.27;;;;;;;-144.74;100.00;63161.41;4978887;28;20038;-76
2023/12/19 06:15:44;;;;;;;27.77;15.63;;;;;;;-144.74;100.00;63161.41;4983183;28;20492;-77
2023/12/19 06:18:09;;;;;;;27.73;15.30;;;;;;;-144.74;100.00;63161.41;4979040;28;20038;-77
2023/12/19 06:20:35;;;;;;;25.27;14.75;;;;;;;-144.74;100.00;63161.41;4982977;28;20026;-77
2023/12/19 06:23:00;;;;;;;21.50;13.38;;;;;;;-144.74;100.00;63161.41;4978832;28;20114;-77
2023/12/19 06:25:26;;;;;;;26.48;14.85;;;;;;;-144.74;100.00;63161.41;4979227;28;20378;-78
2023/12/19 06:27:52;;;;;;;23.85;12.57;;;;;;;-144.74;100.00;63161.41;4988244;28;20045;-78
2023/12/19 06:30:17;;;;;;;24.52;15.15;;;;;;;-144.74;100.00;63161.41;4995255;28;20057;-79
2023/12/19 06:32:45;;;;;;;21.05;12.82;;;;;;;-144.74;100.00;63161.41;4985406;28;20122;-77
2023/12/19 06:35:11;;;;;;;21.02;12.90;;;;;;;-144.74;100.00;63161.41;4989877;28;20029;-78
2023/12/19 06:37:37;;;;;;;17.48;10.60;;;;;;;-144.74;100.00;63161.41;4986779;28;20011;-78
2023/12/19 06:40:03;;;;;;;20.58;12.10;;;;;;;-144.74;100.00;63161.41;4991218;28;20018;-78
2023/12/19 06:42:29;;;;;;;16.55;11.25;;;;;;;-144.74;100.00;63161.41;4984131;28;20063;-78
2023/12/19 06:44:55;;;;;;;17.85;10.57;;;;;;;-144.74;100.00;63161.41;4988336;28;20034;-78
2023/12/19 06:47:20;;;;;;;24.33;11.38;;;;;;;-144.74;100.00;63161.41;4987031;28;20153;-78
2023/12/19 06:49:46;;;;;;;15.23;9.55;;;;;;;-144.74;100.00;63161.41;4986753;28;20026;-78
2023/12/19 06:52:11;;;;;;;12.80;8.43;;;;;;;-144.74;100.00;63161.41;4984632;28;20031;-77
2023/12/19 06:54:38;;;;;;;12.98;8.25;;;;;;;-144.74;100.00;63161.41;4981978;28;20035;-77
2023/12/19 06:57:06;;;;;;;10.80;7.07;;;;;;;-144.74;100.00;63161.41;4982498;28;20033;-77
2023/12/19 06:59:34;;;;;;;15.27;8.43;;;;;;;-144.74;100.00;63161.41;4976910;28;20046;-76
2023/12/19 07:02:00;;;;;;;12.15;7.50;;;;;;;-144.74;100.00;63161.41;4986169;28;20583;-77
2023/12/19 07:04:26;;;;;;;12.98;7.75;;;;;;;-144.74;100.00;63161.41;4983955;28;20054;-77
2023/12/19 07:06:51;;;;;;;14.57;8.80;;;;;;;-144.74;100.00;63161.41;4982566;28;20109;-78
2023/12/19 07:09:17;;;;;;;14.55;8.30;;;;;;;-144.74;100.00;63161.41;4987508;28;20525;-78
2023/12/19 07:11:42;;;;;;;10.63;7.47;;;;;;;-144.74;100.00;63161.41;4989514;28;20033;-79
2023/12/19 07:14:08;;;;;;;9.90;7.10;;;;;;;-144.74;100.00;63161.41;4983525;28;20039;-79
2023/12/19 07:16:33;;;;;;;15.18;7.78;;;;;;;-144.74;100.00;63161.41;4989488;28;20029;-79
2023/12/19 07:19:00;;;;;;;12.65;6.95;;;;;;;-144.74;100.00;63161.41;4988008;28;20113;-76
2023/12/19 07:21:26;;;;;;;10.43;7.15;;;;;;;-144.74;100.00;63161.41;4982615;28;20065;-76
2023/12/19 07:23:53;;;;;;;13.05;7.25;;;;;;;-144.74;100.00;63161.41;4976550;28;20034;-76
2023/12/19 07:26:29;;;;;;;15.52;7.93;;;;;;;-144.74;100.00;63161.41;4983944;28;20027;-76
2023/12/19 07:28:59;;;;;;;13.20;6.80;;;;;;;-144.74;100.00;63161.41;4983678;28;20041;-76
2023/12/19 07:31:31;;;;;;;11.88;8.32;;;;;;;-144.74;100.00;63161.41;4973663;28;20050;-76
2023/12/19 07:33:58;;;;;;;10.55;7.22;;;;;;;-144.74;100.00;63161.41;4976727;28;20560;-76
2023/12/19 07:36:27;;;;;;;11.00;7.97;;;;;;;-144.74;100.00;63161.41;4973666;28;20119;-76
2023/12/19 07:38:53;;;;;;;9.25;7.05;;;;;;;-144.74;100.00;63161.41;4982579;28;20030;-76
2023/12/19 07:41:19;;;;;;;10.88;7.18;;;;;;;-144.74;100.00;63161.41;4977262;28;20088;-76
2023/12/19 07:43:44;;;;;;;11.23;7.30;;;;;;;-144.74;100.00;63161.41;4976447;28;20035;-74
2023/12/19 07:46:12;;;;;;;8.40;6.32;;;;;;;-144.74;100.00;63161.41;4978647;28;20518;-75
2023/12/19 07:48:37;;;;;;;7.75;5.72;;;;;;;-144.74;100.00;63161.41;4983975;28;20050;-75
2023/12/19 07:51:03;;;;;;;7.25;5.72;;;;;;;-144.74;100.00;63161.41;4983133;28;20523;-75
2023/12/19 07:53:32;;;;;;;10.35;5.60;;;;;;;-144.74;100.00;63161.41;4978038;28;20070;-75
2023/12/19 07:55:59;;;;;;;7.18;5.68;;;;;;;-144.74;100.00;63161.41;4981781;28;20022;-75
2023/12/19 07:58:25;;;;;;;8.43;5.55;;;;;;;-144.74;100.00;63161.41;4978538;28;20046;-76
2023/12/19 08:00:50;;;;;;;7.80;5.30;;;;;;;-144.74;100.00;63161.41;4976414;28;20117;-74
2023/12/19 08:03:16;;;;;;;7.30;5.82;;;;;;;-144.74;100.00;63161.41;4980717;28;20043;-75
2023/12/19 08:05:53;;;;;;;8.07;5.63;;;;;;;-144.74;100.00;63161.41;4977649;28;20058;-75
2023/12/19 08:08:20;;;;;;;9.48;5.50;;;;;;;-144.74;100.00;63161.41;4984595;28;20046;-75
2023/12/19 08:10:46;;;;;;;6.32;4.47;;;;;;;-144.74;100.00;63161.41;4981806;28;20027;-76
2023/12/19 08:13:12;;;;;;;7.07;5.13;;;;;;;-144.74;100.00;63161.41;4979764;28;20198;-76
2023/12/19 08:15:41;;;;;;;6.63;4.80;;;;;;;-144.74;100.00;63161.41;4989088;28;20022;-76
2023/12/19 08:18:07;;;;;;;8.18;5.43;;;;;;;-144.74;100.00;63161.41;4978738;28;20105;-76
2023/12/19 08:20:33;;;;;;;11.50;5.53;;;;;;;-144.74;100.00;63161.41;4985433;28;20027;-76
2023/12/19 08:22:59;;;;;;;6.72;5.22;;;;;;;-144.74;100.00;63161.41;4976932;28;20089;-76
2023/12/19 08:25:25;;;;;;;12.27;4.35;;;;;;;-144.74;100.00;63161.41;4988796;28;20030;-76
2023/12/19 08:27:50;;;;;;;8.15;4.70;;;;;;;-144.74;100.00;63161.41;4980491;28;20053;-76
2023/12/19 08:30:16;;;;;;;10.00;4.82;;;;;;;-144.74;100.00;63161.41;4989114;28;20027;-76
2023/12/19 08:32:41;;;;;;;7.50;4.68;;;;;;;-144.74;100.00;63161.41;4980483;28;20070;-76
2023/12/19 08:35:07;;;;;;;7.22;4.70;;;;;;;-144.74;100.00;63161.41;4978221;28;20042;-76
2023/12/19 08:37:32;;;;;;;6.70;4.57;;;;;;;-144.74;100.00;63161.41;4995201;23;20129;-76
2023/12/19 08:40:03;;;;;;;7.43;4.78;;;;;;;-144.74;100.00;63161.41;4999900;28;20053;-76
2023/12/19 08:42:29;;;;;;;8.07;3.88;;;;;;;-144.74;100.00;63161.41;4991198;28;20050;-74
2023/12/19 08:44:55;;;;;;;4.55;3.30;;;;;;;-144.74;100.00;63161.41;4994698;28;20026;-75
2023/12/19 08:47:22;;;;;;;4.80;3.65;;;;;;;-144.74;100.00;63161.41;4991094;28;20034;-76
2023/12/19 08:49:47;;;;;;;7.63;4.53;;;;;;;-144.74;100.00;63161.41;4976128;28;20039;-78
2023/12/19 08:52:13;;;;;;;5.05;3.33;;;;;;;-144.74;100.00;63161.41;4988089;28;20041;-75
2023/12/19 08:54:38;;;;;;;4.07;2.97;;;;;;;-144.74;100.00;63161.41;4981471;28;20125;-74
2023/12/19 08:57:04;;;;;;;5.40;3.38;;;;;;;-144.74;100.00;63161.41;4977057;28;20030;-74
2023/12/19 08:59:31;;;;;;;8.93;3.13;;;;;;;-144.74;100.00;63161.41;4978462;28;20082;-75
2023/12/19 09:01:57;;;;;;;5.63;3.90;;;;;;;-144.74;100.00;63161.41;4982939;28;20030;-75
2023/12/19 09:04:22;;;;;;;8.10;3.83;;;;;;;-144.74;100.00;63161.41;4979021;28;20035;-74
2023/12/19 09:06:48;;;;;;;6.15;3.40;;;;;;;-144.74;100.00;63161.41;4975617;28;20453;-74
2023/12/19 09:09:14;;;;;;;10.32;4.07;;;;;;;-144.74;100.00;63161.41;4975592;28;20042;-74
2023/12/19 09:11:40;;;;;;;9.38;4.55;;;;;;;-144.74;100.00;63161.41;4981670;28;20038;-74
2023/12/19 09:14:05;;;;;;;11.30;4.93;;;;;;;-144.74;100.00;63161.41;4976666;28;20069;-74
2023/12/19 09:16:32;;;;;;;10.43;4.15;;;;;;;-144.74;100.00;63161.41;4984304;28;20038;-74
2023/12/19 09:18:59;;;;;;;8.60;4.13;;;;;;;-144.74;100.00;63161.41;4976816;28;20495;-74
2023/12/19 09:21:26;;;;;;;6.88;3.63;;;;;;;-144.74;100.00;63161.41;4980834;28;20062;-75
2023/12/19 09:23:51;;;;;;;9.52;4.15;;;;;;;-144.74;100.00;63161.41;4976957;28;20102;-74
2023/12/19 09:26:17;;;;;;;5.07;3.42;;;;;;;-144.74;100.00;63161.41;4981893;28;20113;-75
2023/12/19 09:28:42;;;;;;;4.75;3.60;;;;;;;-144.74;100.00;63161.41;4980262;28;20071;-75
2023/12/19 09:31:08;;;;;;;5.40;3.08;;;;;;;-144.74;100.00;63161.41;4978370;28;20088;-75
2023/12/19 09:33:38;;;;;;;3.88;2.95;;;;;;;-144.74;100.00;63161.41;4982617;28;20043;-75
2023/12/19 09:36:24;;;;;;;6.40;3.10;;;;;;;-144.74;100.00;63161.41;4981521;28;20492;-76
2023/12/19 09:38:50;;;;;;;7.40;3.45;;;;;;;-144.74;100.00;63161.41;4978041;28;20037;-75
2023/12/19 09:41:17;;;;;;;5.85;3.78;;;;;;;-144.74;100.00;63161.41;4979109;28;20089;-75
2023/12/19 09:43:43;;;;;;;3.88;2.80;;;;;;;-144.74;100.00;63161.41;4985885;28;20048;-75
2023/12/19 09:46:10;;;;;;;5.10;3.47;;;;;;;-144.74;100.00;63161.41;4979056;28;20070;-76
2023/12/19 09:48:36;;;;;;;5.97;3.10;;;;;;;-144.74;100.00;63161.41;4976996;28;20038;-74
2023/12/19 09:51:03;;;;;;;6.05;3.50;;;;;;;-144.74;100.00;63161.41;4981241;28;20080;-75
2023/12/19 09:53:34;;;;;;;5.30;3.30;;;;;;;-144.74;100.00;63161.41;4974679;28;20035;-74
2023/12/19 09:56:00;;;;;;;5.00;3.65;;;;;;;-144.74;100.00;63161.41;4976504;28;20030;-75
2023/12/19 09:58:28;;;;;;;10.48;2.90;;;;;;;-144.74;100.00;63161.41;4979721;28;20034;-75
2023/12/19 10:00:56;;;;;;;4.45;3.03;;;;;;;-144.74;100.00;63161.41;4982401;28;20061;-75
2023/12/19 10:03:22;;;;;;;5.20;3.10;;;;;;;-144.74;100.00;63161.41;4980377;28;20109;-75
2023/12/19 10:05:47;;;;;;;4.00;2.78;;;;;;;-144.74;100.00;63161.41;4973334;28;20035;-75
2023/12/19 10:08:14;;;;;;;4.07;3.20;;;;;;;-144.74;100.00;63161.41;4975585;28;20097;-75
2023/12/19 10:10:50;;;;;;;3.53;3.10;;;;;;;-144.74;100.00;63161.41;4982783;28;20081;-75
2023/12/19 10:13:32;;;;;;;6.55;3.42;;;;;;;-144.74;100.00;63161.41;4974615;28;20466;-75
2023/12/19 10:16:02;;;;;;;4.65;3.20;;;;;;;-144.74;100.00;63161.41;4972722;28;20064;-75
2023/12/19 10:18:28;;;;;;;3.90;2.80;;;;;;;-144.74;100.00;63161.41;4983352;28;20041;-75
2023/12/19 10:21:13;;;;;;;5.50;3.25;;;;;;;-144.74;100.00;63161.41;4982795;28;20117;-74
2023/12/19 10:23:43;;;;;;;4.75;3.25;;;;;;;-144.74;100.00;63161.41;4979293;28;20053;-75
2023/12/19 10:26:10;;;;;;;6.53;3.15;;;;;;;-144.74;100.00;63161.41;4973589;28;20061;-74
2023/12/19 10:28:38;;;;;;;4.07;3.35;;;;;;;-144.74;100.00;63161.41;4980759;28;20073;-75
2023/12/19 10:31:15;;;;;;;6.32;3.03;;;;;;;-144.74;100.00;63161.41;4979621;28;20065;-75
2023/12/19 10:33:45;;;;;;;3.05;2.60;;;;;;;-144.74;100.00;63161.41;4981298;28;20046;-75
2023/12/19 10:36:27;;;;;;;4.47;3.03;;;;;;;-144.74;100.00;63161.41;4976338;28;20441;-75
2023/12/19 10:38:53;;;;;;;;;;;;;;;-144.74;100.00;63161.41;4973500;28;20117;-74
2023/12/19 10:41:21;;;;;;;4.88;3.70;;;;;;;-144.74;100.00;63161.41;4975523;28;19941;-74
2023/12/19 10:43:52;;;;;;;8.30;4.30;;;;;;;-144.74;100.00;63161.41;4973667;28;20030;-74
2023/12/19 10:46:19;;;;;;;7.67;3.13;;;;;;;-144.74;100.00;63161.41;4981755;28;20033;-74
2023/12/19 10:48:47;;;;;;;4.22;3.83;;;;;;;-144.74;100.00;63161.41;4978490;28;20085;-75
2023/12/19 10:51:23;;;;;;;4.68;4.15;;;;;;;-144.74;100.00;63161.41;4978513;28;20045;-75
2023/12/19 10:53:58;;;;;;;8.43;3.88;;;;;;;-144.74;100.00;63161.41;4984089;28;20046;-75
2023/12/19 10:56:24;;;;;;;5.20;4.00;;;;;;;-144.74;100.00;63161.41;4980360;28;20031;-75